sensor_id;sensor_type;location;lat;lon;timestamp;pressure;altitude;pressure_sealevel;temperature;humidity
14293;BME280;62290;59.420;17.842;2022-10-20T00:00:54;102009.38;;;20.83;30.78
14293;BME280;62290;59.420;17.842;2022-10-20T00:03:22;101999.78;;;20.79;30.77
14293;BME280;62290;59.420;17.842;2022-10-20T00:05:51;102002.19;;;20.83;30.49
14293;BME280;62290;59.420;17.842;2022-10-20T00:08:20;101996.81;;;20.83;30.87
14293;BME280;62290;59.420;17.842;2022-10-20T00:10:52;102000.38;;;20.84;30.89
14293;BME280;62290;59.420;17.842;2022-10-20T00:13:20;101993.38;;;20.81;30.81
14293;BME280;62290;59.420;17.842;2022-10-20T00:15:48;101993.47;;;20.80;30.60
14293;BME280;62290;59.420;17.842;2022-10-20T00:18:16;101990.78;;;20.80;30.54
14293;BME280;62290;59.420;17.842;2022-10-20T00:20:45;101993.47;;;20.80;30.49
14293;BME280;62290;59.420;17.842;2022-10-20T00:23:13;101993.47;;;20.80;30.75
14293;BME280;62290;59.420;17.842;2022-10-20T00:25:42;101992.50;;;20.81;30.83
14293;BME280;62290;59.420;17.842;2022-10-20T00:28:10;101990.84;;;20.78;30.95
14293;BME280;62290;59.420;17.842;2022-10-20T00:30:39;101975.38;;;20.68;30.80
14293;BME280;62290;59.420;17.842;2022-10-20T00:33:07;101993.53;;;20.78;30.84
14293;BME280;62290;59.420;17.842;2022-10-20T00:35:37;101995.28;;;20.79;30.60
14293;BME280;62290;59.420;17.842;2022-10-20T00:38:05;101994.50;;;20.77;30.92
14293;BME280;62290;59.420;17.842;2022-10-20T00:40:33;102006.06;;;20.78;30.93
14293;BME280;62290;59.420;17.842;2022-10-20T00:43:02;101996.22;;;20.78;30.47
14293;BME280;62290;59.420;17.842;2022-10-20T00:45:30;101993.63;;;20.77;30.87
14293;BME280;62290;59.420;17.842;2022-10-20T00:48:05;101972.91;;;20.65;30.66
14293;BME280;62290;59.420;17.842;2022-10-20T00:50:38;101989.22;;;20.76;30.66
14293;BME280;62290;59.420;17.842;2022-10-20T00:53:08;101992.00;;;20.74;30.55
14293;BME280;62290;59.420;17.842;2022-10-20T00:55:39;101991.03;;;20.75;30.63
14293;BME280;62290;59.420;17.842;2022-10-20T00:58:11;101995.53;;;20.75;30.45
14293;BME280;62290;59.420;17.842;2022-10-20T01:00:39;101990.34;;;20.72;30.68
14293;BME280;62290;59.420;17.842;2022-10-20T01:03:14;101996.47;;;20.74;30.76
14293;BME280;62290;59.420;17.842;2022-10-20T01:05:43;101994.84;;;20.71;30.56
14293;BME280;62290;59.420;17.842;2022-10-20T01:08:11;102000.97;;;20.73;30.52
14293;BME280;62290;59.420;17.842;2022-10-20T01:10:42;102005.47;;;20.73;30.50
14293;BME280;62290;59.420;17.842;2022-10-20T01:13:20;102007.34;;;20.71;30.51
14293;BME280;62290;59.420;17.842;2022-10-20T01:15:57;102006.44;;;20.72;30.52
14293;BME280;62290;59.420;17.842;2022-10-20T01:18:32;102004.69;;;20.71;30.66
14293;BME280;62290;59.420;17.842;2022-10-20T01:21:28;101996.75;;;20.69;30.80
14293;BME280;62290;59.420;17.842;2022-10-20T01:27:31;101991.44;;;20.68;30.49
14293;BME280;62290;59.420;17.842;2022-10-20T01:30:12;101989.81;;;20.65;30.60
14293;BME280;62290;59.420;17.842;2022-10-20T01:33:07;101989.81;;;20.65;30.45
14293;BME280;62290;59.420;17.842;2022-10-20T01:35:46;101989.81;;;20.65;30.48
14293;BME280;62290;59.420;17.842;2022-10-20T01:38:25;101991.66;;;20.65;30.83
14293;BME280;62290;59.420;17.842;2022-10-20T01:40:59;101988.97;;;20.65;30.43
14293;BME280;62290;59.420;17.842;2022-10-20T01:43:32;101968.03;;;20.56;30.66
14293;BME280;62290;59.420;17.842;2022-10-20T01:46:03;101985.31;;;20.66;30.41
14293;BME280;62290;59.420;17.842;2022-10-20T01:48:34;101979.97;;;20.66;30.49
14293;BME280;62290;59.420;17.842;2022-10-20T01:51:03;101979.97;;;20.66;30.40
14293;BME280;62290;59.420;17.842;2022-10-20T01:53:31;101984.44;;;20.65;30.54
14293;BME280;62290;59.420;17.842;2022-10-20T01:56:00;101984.44;;;20.65;30.73
14293;BME280;62290;59.420;17.842;2022-10-20T01:58:50;101979.03;;;20.67;30.27
14293;BME280;62290;59.420;17.842;2022-10-20T02:01:28;101984.44;;;20.65;30.48
14293;BME280;62290;59.420;17.842;2022-10-20T02:04:04;101985.31;;;20.66;30.38
14293;BME280;62290;59.420;17.842;2022-10-20T02:06:41;101983.50;;;20.66;30.43
14293;BME280;62290;59.420;17.842;2022-10-20T02:09:13;101961.13;;;20.52;30.28
14293;BME280;62290;59.420;17.842;2022-10-20T02:11:48;101980.84;;;20.66;30.45
14293;BME280;62290;59.420;17.842;2022-10-20T02:14:21;101977.28;;;20.66;30.13
14293;BME280;62290;59.420;17.842;2022-10-20T02:16:52;101978.25;;;20.65;30.39
14293;BME280;62290;59.420;17.842;2022-10-20T02:19:26;101975.56;;;20.65;30.26
14293;BME280;62290;59.420;17.842;2022-10-20T02:21:56;101979.25;;;20.62;30.27
14293;BME280;62290;59.420;17.842;2022-10-20T02:24:27;101979.09;;;20.65;30.30
14293;BME280;62290;59.420;17.842;2022-10-20T02:26:58;101977.28;;;20.66;29.96
14293;BME280;62290;59.420;17.842;2022-10-20T02:29:35;101981.78;;;20.65;29.89
14293;BME280;62290;59.420;17.842;2022-10-20T02:32:05;101977.38;;;20.64;29.85
14293;BME280;62290;59.420;17.842;2022-10-20T02:34:34;101975.56;;;20.65;30.16
14293;BME280;62290;59.420;17.842;2022-10-20T02:37:08;101979.97;;;20.66;30.13
14293;BME280;62290;59.420;17.842;2022-10-20T02:39:36;101979.97;;;20.66;29.84
14293;BME280;62290;59.420;17.842;2022-10-20T02:42:04;101957.31;;;20.56;29.98
14293;BME280;62290;59.420;17.842;2022-10-20T02:44:33;101970.22;;;20.65;29.98
14293;BME280;62290;59.420;17.842;2022-10-20T02:47:01;101967.53;;;20.65;29.78
14293;BME280;62290;59.420;17.842;2022-10-20T02:49:29;101963.13;;;20.64;29.89
14293;BME280;62290;59.420;17.842;2022-10-20T02:51:57;101972.03;;;20.64;29.84
14293;BME280;62290;59.420;17.842;2022-10-20T02:54:25;101971.16;;;20.64;29.83
14293;BME280;62290;59.420;17.842;2022-10-20T02:56:54;101970.22;;;20.65;30.02
14293;BME280;62290;59.420;17.842;2022-10-20T02:59:22;101972.91;;;20.65;29.97
14293;BME280;62290;59.420;17.842;2022-10-20T03:01:51;101972.91;;;20.65;29.96
14293;BME280;62290;59.420;17.842;2022-10-20T03:04:20;101966.66;;;20.64;30.12
14293;BME280;62290;59.420;17.842;2022-10-20T03:06:48;101969.34;;;20.64;29.54
14293;BME280;62290;59.420;17.842;2022-10-20T03:09:16;101968.47;;;20.64;29.72
14293;BME280;62290;59.420;17.842;2022-10-20T03:11:44;101969.34;;;20.64;29.94
14293;BME280;62290;59.420;17.842;2022-10-20T03:14:12;101967.69;;;20.62;29.56
14293;BME280;62290;59.420;17.842;2022-10-20T03:16:40;101978.41;;;20.62;29.82
14293;BME280;62290;59.420;17.842;2022-10-20T03:19:09;101978.41;;;20.62;29.93
14293;BME280;62290;59.420;17.842;2022-10-20T03:21:37;101971.31;;;20.61;29.77
14293;BME280;62290;59.420;17.842;2022-10-20T03:24:05;101965.97;;;20.61;29.77
14293;BME280;62290;59.420;17.842;2022-10-20T03:26:33;101974.88;;;20.61;29.91
14293;BME280;62290;59.420;17.842;2022-10-20T03:29:02;101971.31;;;20.61;29.62
14293;BME280;62290;59.420;17.842;2022-10-20T03:31:30;101967.88;;;20.59;29.74
14293;BME280;62290;59.420;17.842;2022-10-20T03:33:58;101967.88;;;20.59;29.80
14293;BME280;62290;59.420;17.842;2022-10-20T03:36:27;101964.31;;;20.58;29.76
14293;BME280;62290;59.420;17.842;2022-10-20T03:38:55;101980.28;;;20.60;29.53
14293;BME280;62290;59.420;17.842;2022-10-20T03:41:23;101977.72;;;20.58;29.65
14293;BME280;62290;59.420;17.842;2022-10-20T03:43:51;101971.47;;;20.58;29.44
14293;BME280;62290;59.420;17.842;2022-10-20T03:46:18;101978.66;;;20.57;29.71
14293;BME280;62290;59.420;17.842;2022-10-20T03:48:46;101964.03;;;20.47;29.71
14293;BME280;62290;59.420;17.842;2022-10-20T03:51:14;101977.81;;;20.57;29.76
14293;BME280;62290;59.420;17.842;2022-10-20T03:53:44;101987.56;;;20.58;29.61
14293;BME280;62290;59.420;17.842;2022-10-20T03:56:15;101990.22;;;20.58;29.56
14293;BME280;62290;59.420;17.842;2022-10-20T03:58:44;101993.88;;;20.57;29.72
14293;BME280;62290;59.420;17.842;2022-10-20T04:01:13;101998.38;;;20.56;29.78
14293;BME280;62290;59.420;17.842;2022-10-20T04:03:42;101993.94;;;20.55;29.53
14293;BME280;62290;59.420;17.842;2022-10-20T04:06:11;101993.06;;;20.55;29.51
14293;BME280;62290;59.420;17.842;2022-10-20T04:08:39;101991.34;;;20.54;29.55
14293;BME280;62290;59.420;17.842;2022-10-20T04:11:09;101983.31;;;20.54;29.66
14293;BME280;62290;59.420;17.842;2022-10-20T04:13:37;101986.88;;;20.54;29.79
14293;BME280;62290;59.420;17.842;2022-10-20T04:16:06;101989.56;;;20.54;29.47
14293;BME280;62290;59.420;17.842;2022-10-20T04:18:34;101989.56;;;20.54;29.60
14293;BME280;62290;59.420;17.842;2022-10-20T04:21:02;101991.34;;;20.54;29.51
14293;BME280;62290;59.420;17.842;2022-10-20T04:23:30;101986.00;;;20.54;29.72
14293;BME280;62290;59.420;17.842;2022-10-20T04:25:58;101977.19;;;20.52;29.53
14293;BME280;62290;59.420;17.842;2022-10-20T04:28:28;101981.59;;;20.53;29.70
14293;BME280;62290;59.420;17.842;2022-10-20T04:30:58;101947.59;;;20.38;29.56
14293;BME280;62290;59.420;17.842;2022-10-20T04:33:26;101986.16;;;20.51;29.60
14293;BME280;62290;59.420;17.842;2022-10-20T04:35:56;101984.34;;;20.51;29.51
14293;BME280;62290;59.420;17.842;2022-10-20T04:38:25;101984.41;;;20.50;29.44
14293;BME280;62290;59.420;17.842;2022-10-20T04:40:53;101984.41;;;20.50;29.28
14293;BME280;62290;59.420;17.842;2022-10-20T04:43:27;101981.75;;;20.50;29.51
14293;BME280;62290;59.420;17.842;2022-10-20T04:45:58;101982.63;;;20.50;29.60
14293;BME280;62290;59.420;17.842;2022-10-20T04:48:32;101972.06;;;20.47;29.62
14293;BME280;62290;59.420;17.842;2022-10-20T04:51:02;101978.38;;;20.46;29.49
14293;BME280;62290;59.420;17.842;2022-10-20T04:53:30;101981.06;;;20.46;29.59
14293;BME280;62290;59.420;17.842;2022-10-20T04:55:58;101981.91;;;20.47;29.38
14293;BME280;62290;59.420;17.842;2022-10-20T04:58:28;101974.84;;;20.46;29.31
14293;BME280;62290;59.420;17.842;2022-10-20T05:00:59;101974.75;;;20.47;29.29
14293;BME280;62290;59.420;17.842;2022-10-20T05:03:28;101970.41;;;20.45;29.38
14293;BME280;62290;59.420;17.842;2022-10-20T05:06:07;101989.09;;;20.46;29.49
14293;BME280;62290;59.420;17.842;2022-10-20T05:08:35;101984.84;;;20.42;29.50
14293;BME280;62290;59.420;17.842;2022-10-20T05:11:03;101982.94;;;20.44;29.32
14293;BME280;62290;59.420;17.842;2022-10-20T05:13:33;101986.50;;;20.45;29.59
14293;BME280;62290;59.420;17.842;2022-10-20T05:16:01;101959.69;;;20.29;29.29
14293;BME280;62290;59.420;17.842;2022-10-20T05:18:29;101978.56;;;20.43;29.28
14293;BME280;62290;59.420;17.842;2022-10-20T05:20:57;101990.13;;;20.44;29.62
14293;BME280;62290;59.420;17.842;2022-10-20T05:23:35;101986.66;;;20.42;29.48
14293;BME280;62290;59.420;17.842;2022-10-20T05:26:04;101980.34;;;20.43;29.36
14293;BME280;62290;59.420;17.842;2022-10-20T05:28:33;101985.72;;;20.43;29.52
14293;BME280;62290;59.420;17.842;2022-10-20T05:31:03;101988.56;;;20.40;29.40
14293;BME280;62290;59.420;17.842;2022-10-20T05:33:31;101993.91;;;20.40;29.22
14293;BME280;62290;59.420;17.842;2022-10-20T05:36:05;101988.03;;;20.33;29.48
14293;BME280;62290;59.420;17.842;2022-10-20T05:38:33;101994.06;;;20.37;29.43
14293;BME280;62290;59.420;17.842;2022-10-20T05:41:07;101996.59;;;20.40;29.33
14293;BME280;62290;59.420;17.842;2022-10-20T05:43:37;101969.78;;;20.24;29.25
14293;BME280;62290;59.420;17.842;2022-10-20T05:46:05;101974.25;;;20.23;29.48
14293;BME280;62290;59.420;17.842;2022-10-20T05:48:34;101995.09;;;20.34;29.59
14293;BME280;62290;59.420;17.842;2022-10-20T05:51:09;101989.69;;;20.36;29.48
14293;BME280;62290;59.420;17.842;2022-10-20T05:53:41;101990.72;;;20.33;29.53
14293;BME280;62290;59.420;17.842;2022-10-20T05:56:10;101989.75;;;20.34;29.24
14293;BME280;62290;59.420;17.842;2022-10-20T05:58:41;101989.84;;;20.33;29.23
14293;BME280;62290;59.420;17.842;2022-10-20T06:01:12;101989.06;;;20.30;29.36
14293;BME280;62290;59.420;17.842;2022-10-20T06:03:46;101970.06;;;20.18;29.44
14293;BME280;62290;59.420;17.842;2022-10-20T06:06:15;101991.75;;;20.30;29.50
14293;BME280;62290;59.420;17.842;2022-10-20T06:08:43;101988.19;;;20.30;29.53
14293;BME280;62290;59.420;17.842;2022-10-20T06:11:12;101988.19;;;20.30;29.19
14293;BME280;62290;59.420;17.842;2022-10-20T06:13:41;101987.31;;;20.29;29.30
14293;BME280;62290;59.420;17.842;2022-10-20T06:16:16;101992.69;;;20.29;29.47
14293;BME280;62290;59.420;17.842;2022-10-20T06:18:44;101997.25;;;20.27;29.37
14293;BME280;62290;59.420;17.842;2022-10-20T06:21:13;101994.47;;;20.29;29.49
14293;BME280;62290;59.420;17.842;2022-10-20T06:23:42;102001.75;;;20.27;29.34
14293;BME280;62290;59.420;17.842;2022-10-20T06:26:12;101995.50;;;20.26;29.40
14293;BME280;62290;59.420;17.842;2022-10-20T06:28:42;102004.41;;;20.27;29.73
14293;BME280;62290;59.420;17.842;2022-10-20T06:31:11;101993.78;;;20.25;29.48
14293;BME280;62290;59.420;17.842;2022-10-20T06:33:40;102001.81;;;20.25;29.36
14293;BME280;62290;59.420;17.842;2022-10-20T06:36:08;102011.56;;;20.26;29.62
14293;BME280;62290;59.420;17.842;2022-10-20T06:38:37;102006.31;;;20.25;29.57
14293;BME280;62290;59.420;17.842;2022-10-20T06:41:07;102008.13;;;20.24;29.44
14293;BME280;62290;59.420;17.842;2022-10-20T06:43:36;102004.63;;;20.22;29.72
14293;BME280;62290;59.420;17.842;2022-10-20T06:46:10;102002.66;;;20.26;29.83
14293;BME280;62290;59.420;17.842;2022-10-20T06:48:38;102004.63;;;20.22;29.79
14293;BME280;62290;59.420;17.842;2022-10-20T06:51:09;102002.81;;;20.23;29.95
14293;BME280;62290;59.420;17.842;2022-10-20T06:53:38;101999.22;;;20.24;29.94
14293;BME280;62290;59.420;17.842;2022-10-20T06:56:14;102001.03;;;20.23;29.78
14293;BME280;62290;59.420;17.842;2022-10-20T06:58:43;102005.50;;;20.23;29.90
14293;BME280;62290;59.420;17.842;2022-10-20T07:01:14;102010.84;;;20.23;29.72
14293;BME280;62290;59.420;17.842;2022-10-20T07:03:43;102010.13;;;20.19;29.89
14293;BME280;62290;59.420;17.842;2022-10-20T07:06:13;102015.22;;;20.25;30.37
14293;BME280;62290;59.420;17.842;2022-10-20T07:08:42;102017.91;;;20.25;30.21
14293;BME280;62290;59.420;17.842;2022-10-20T07:11:12;102016.94;;;20.26;30.19
14293;BME280;62290;59.420;17.842;2022-10-20T07:13:40;102026.69;;;20.27;30.18
14293;BME280;62290;59.420;17.842;2022-10-20T07:16:11;102024.81;;;20.29;30.12
14293;BME280;62290;59.420;17.842;2022-10-20T07:18:41;102021.19;;;20.30;30.24
14293;BME280;62290;59.420;17.842;2022-10-20T07:21:15;102020.47;;;20.27;30.19
14293;BME280;62290;59.420;17.842;2022-10-20T07:23:44;102024.66;;;20.33;30.22
14293;BME280;62290;59.420;17.842;2022-10-20T07:26:14;102024.47;;;20.36;30.50
14293;BME280;62290;59.420;17.842;2022-10-20T07:28:44;102018.16;;;20.37;30.18
14293;BME280;62290;59.420;17.842;2022-10-20T07:31:20;102025.25;;;20.38;30.32
14293;BME280;62290;59.420;17.842;2022-10-20T07:33:50;102016.34;;;20.37;30.37
14293;BME280;62290;59.420;17.842;2022-10-20T07:36:40;102032.16;;;20.42;30.17
14293;BME280;62290;59.420;17.842;2022-10-20T07:39:11;102033.81;;;20.44;30.03
14293;BME280;62290;59.420;17.842;2022-10-20T07:41:40;102023.97;;;20.45;30.14
14293;BME280;62290;59.420;17.842;2022-10-20T07:44:11;102024.84;;;20.45;30.05
14293;BME280;62290;59.420;17.842;2022-10-20T07:46:39;102031.94;;;20.46;30.24
14293;BME280;62290;59.420;17.842;2022-10-20T07:49:08;102031.75;;;20.49;30.40
14293;BME280;62290;59.420;17.842;2022-10-20T07:51:56;102038.84;;;20.50;30.62
14293;BME280;62290;59.420;17.842;2022-10-20T07:54:26;102032.47;;;20.53;30.58
14293;BME280;62290;59.420;17.842;2022-10-20T07:56:54;102043.97;;;20.55;30.52
14293;BME280;62290;59.420;17.842;2022-10-20T07:59:22;102036.03;;;20.53;30.88
14293;BME280;62290;59.420;17.842;2022-10-20T08:01:50;102039.47;;;20.55;30.51
14293;BME280;62290;59.420;17.842;2022-10-20T08:04:25;102037.34;;;20.62;30.60
14293;BME280;62290;59.420;17.842;2022-10-20T08:06:53;102037.34;;;20.62;30.54
14293;BME280;62290;59.420;17.842;2022-10-20T08:09:21;102030.09;;;20.64;30.75
14293;BME280;62290;59.420;17.842;2022-10-20T08:11:49;102032.66;;;20.65;30.85
14293;BME280;62290;59.420;17.842;2022-10-20T08:14:22;102029.94;;;20.67;30.61
14293;BME280;62290;59.420;17.842;2022-10-20T08:16:52;102026.28;;;20.68;30.52
14293;BME280;62290;59.420;17.842;2022-10-20T08:19:30;102031.63;;;20.68;30.54
14293;BME280;62290;59.420;17.842;2022-10-20T08:22:00;102033.28;;;20.70;30.57
14293;BME280;62290;59.420;17.842;2022-10-20T08:24:28;102027.16;;;20.68;30.48
14293;BME280;62290;59.420;17.842;2022-10-20T08:26:56;102034.16;;;20.71;30.63
14293;BME280;62290;59.420;17.842;2022-10-20T08:29:24;102039.50;;;20.71;30.35
14293;BME280;62290;59.420;17.842;2022-10-20T08:31:52;102035.03;;;20.71;30.43
14293;BME280;62290;59.420;17.842;2022-10-20T08:34:19;102037.59;;;20.73;30.66
14293;BME280;62290;59.420;17.842;2022-10-20T08:36:49;102032.19;;;20.74;30.59
14293;BME280;62290;59.420;17.842;2022-10-20T08:39:17;102027.69;;;20.75;30.53
14293;BME280;62290;59.420;17.842;2022-10-20T08:41:46;102032.84;;;20.78;30.38
14293;BME280;62290;59.420;17.842;2022-10-20T08:44:37;102021.31;;;20.77;30.47
14293;BME280;62290;59.420;17.842;2022-10-20T08:47:16;102029.19;;;20.80;30.59
14293;BME280;62290;59.420;17.842;2022-10-20T08:49:48;102010.13;;;20.69;30.81
14293;BME280;62290;59.420;17.842;2022-10-20T08:52:19;102022.84;;;20.81;30.78
14293;BME280;62290;59.420;17.842;2022-10-20T08:54:51;102024.59;;;20.82;30.65
14293;BME280;62290;59.420;17.842;2022-10-20T08:57:22;102024.50;;;20.84;30.86
14293;BME280;62290;59.420;17.842;2022-10-20T08:59:52;102019.13;;;20.84;30.79
14293;BME280;62290;59.420;17.842;2022-10-20T09:02:21;102017.22;;;20.86;30.91
14293;BME280;62290;59.420;17.842;2022-10-20T09:04:51;102015.41;;;20.86;30.69
14293;BME280;62290;59.420;17.842;2022-10-20T09:07:25;102017.94;;;20.89;30.57
14293;BME280;62290;59.420;17.842;2022-10-20T09:10:09;102016.91;;;20.92;30.52
14293;BME280;62290;59.420;17.842;2022-10-20T09:12:43;102022.34;;;20.90;30.73
14293;BME280;62290;59.420;17.842;2022-10-20T09:15:15;102019.56;;;20.92;30.67
14293;BME280;62290;59.420;17.842;2022-10-20T09:17:45;102016.03;;;20.91;30.61
14293;BME280;62290;59.420;17.842;2022-10-20T09:20:19;102016.78;;;20.93;30.91
14293;BME280;62290;59.420;17.842;2022-10-20T09:22:50;102010.59;;;20.93;30.91
14293;BME280;62290;59.420;17.842;2022-10-20T09:25:23;102006.88;;;20.96;30.70
14293;BME280;62290;59.420;17.842;2022-10-20T09:27:55;102016.72;;;20.95;30.74
14293;BME280;62290;59.420;17.842;2022-10-20T09:30:31;102012.25;;;20.96;30.74
14293;BME280;62290;59.420;17.842;2022-10-20T09:33:19;102009.56;;;20.96;30.78
14293;BME280;62290;59.420;17.842;2022-10-20T09:35:48;102011.38;;;20.95;31.05
14293;BME280;62290;59.420;17.842;2022-10-20T09:38:20;102012.13;;;20.97;30.70
14293;BME280;62290;59.420;17.842;2022-10-20T09:40:57;101989.66;;;20.84;30.66
14293;BME280;62290;59.420;17.842;2022-10-20T09:43:26;102006.88;;;20.96;30.71
14293;BME280;62290;59.420;17.842;2022-10-20T09:45:57;102008.59;;;20.97;30.35
14293;BME280;62290;59.420;17.842;2022-10-20T09:48:29;102005.06;;;20.96;30.49
14293;BME280;62290;59.420;17.842;2022-10-20T09:50:58;102011.38;;;20.95;30.49
14293;BME280;62290;59.420;17.842;2022-10-20T09:53:32;102015.78;;;20.96;30.31
14293;BME280;62290;59.420;17.842;2022-10-20T09:56:01;102007.91;;;20.93;30.51
14293;BME280;62290;59.420;17.842;2022-10-20T09:58:31;101999.88;;;20.93;30.25
14293;BME280;62290;59.420;17.842;2022-10-20T10:01:02;101998.91;;;20.94;30.47
14293;BME280;62290;59.420;17.842;2022-10-20T10:03:37;102001.59;;;20.94;30.01
14293;BME280;62290;59.420;17.842;2022-10-20T10:06:20;101999.00;;;20.92;30.20
14293;BME280;62290;59.420;17.842;2022-10-20T10:08:55;101995.47;;;20.92;30.09
14293;BME280;62290;59.420;17.842;2022-10-20T10:11:28;101992.78;;;20.92;30.36
14293;BME280;62290;59.420;17.842;2022-10-20T10:13:58;101994.75;;;20.88;30.49
14293;BME280;62290;59.420;17.842;2022-10-20T10:16:26;101992.00;;;20.90;30.44
14293;BME280;62290;59.420;17.842;2022-10-20T10:18:57;101998.25;;;20.90;30.44
14293;BME280;62290;59.420;17.842;2022-10-20T10:21:28;101996.41;;;20.91;30.52
14293;BME280;62290;59.420;17.842;2022-10-20T10:24:00;101958.97;;;20.74;30.31
14293;BME280;62290;59.420;17.842;2022-10-20T10:26:39;101955.84;;;20.66;30.33
14293;BME280;62290;59.420;17.842;2022-10-20T10:29:23;101980.94;;;20.80;30.13
14293;BME280;62290;59.420;17.842;2022-10-20T10:31:56;101996.59;;;20.88;30.26
14293;BME280;62290;59.420;17.842;2022-10-20T10:34:38;102002.78;;;20.88;31.44
14293;BME280;62290;59.420;17.842;2022-10-20T10:37:11;102006.34;;;20.89;32.58
14293;BME280;62290;59.420;17.842;2022-10-20T10:39:41;102004.44;;;20.91;33.40
14293;BME280;62290;59.420;17.842;2022-10-20T10:42:40;102003.41;;;20.93;34.73
14293;BME280;62290;59.420;17.842;2022-10-20T10:45:16;102002.47;;;20.94;35.17
14293;BME280;62290;59.420;17.842;2022-10-20T10:48:07;102002.41;;;20.96;35.47
14293;BME280;62290;59.420;17.842;2022-10-20T10:50:43;101997.09;;;20.94;35.18
14293;BME280;62290;59.420;17.842;2022-10-20T10:53:22;101969.97;;;20.85;34.91
14293;BME280;62290;59.420;17.842;2022-10-20T10:55:59;101986.97;;;21.00;34.72
14293;BME280;62290;59.420;17.842;2022-10-20T10:58:40;101993.22;;;21.00;34.74
14293;BME280;62290;59.420;17.842;2022-10-20T11:01:22;101991.31;;;21.02;34.80
14293;BME280;62290;59.420;17.842;2022-10-20T11:04:06;101993.03;;;21.03;34.72
14293;BME280;62290;59.420;17.842;2022-10-20T11:06:50;101982.31;;;21.03;34.35
14293;BME280;62290;59.420;17.842;2022-10-20T11:09:29;101979.53;;;21.05;34.47
14293;BME280;62290;59.420;17.842;2022-10-20T11:12:31;101976.97;;;21.03;34.05
14293;BME280;62290;59.420;17.842;2022-10-20T11:15:15;101981.28;;;21.06;34.06
14293;BME280;62290;59.420;17.842;2022-10-20T11:17:55;101976.84;;;21.06;33.72
14293;BME280;62290;59.420;17.842;2022-10-20T11:20:35;101968.78;;;21.06;33.51
14293;BME280;62290;59.420;17.842;2022-10-20T11:23:31;101978.53;;;21.07;33.74
14293;BME280;62290;59.420;17.842;2022-10-20T11:26:12;101975.69;;;21.10;33.29
14293;BME280;62290;59.420;17.842;2022-10-20T11:28:44;101973.94;;;21.09;33.00
14293;BME280;62290;59.420;17.842;2022-10-20T11:31:19;101980.88;;;21.13;33.29
14293;BME280;62290;59.420;17.842;2022-10-20T11:33:55;101975.50;;;21.13;32.82
14293;BME280;62290;59.420;17.842;2022-10-20T11:36:30;101970.94;;;21.15;32.64
14293;BME280;62290;59.420;17.842;2022-10-20T11:38:59;101966.78;;;21.10;33.01
14293;BME280;62290;59.420;17.842;2022-10-20T11:41:32;101976.22;;;21.17;32.55
14293;BME280;62290;59.420;17.842;2022-10-20T11:44:05;101968.94;;;21.19;32.23
14293;BME280;62290;59.420;17.842;2022-10-20T11:46:37;101933.09;;;21.04;32.44
14293;BME280;62290;59.420;17.842;2022-10-20T11:49:08;101956.31;;;21.21;32.49
14293;BME280;62290;59.420;17.842;2022-10-20T11:52:01;101958.88;;;21.22;32.37
14293;BME280;62290;59.420;17.842;2022-10-20T11:54:43;101961.66;;;21.21;32.08
14293;BME280;62290;59.420;17.842;2022-10-20T11:57:22;101966.94;;;21.22;31.94
14293;BME280;62290;59.420;17.842;2022-10-20T12:00:09;101965.13;;;21.23;31.76
14293;BME280;62290;59.420;17.842;2022-10-20T12:09:00;101959.84;;;21.21;31.70
14293;BME280;62290;59.420;17.842;2022-10-20T12:11:34;101965.13;;;21.23;31.71
14293;BME280;62290;59.420;17.842;2022-10-20T12:14:16;101971.34;;;21.23;31.74
14293;BME280;62290;59.420;17.842;2022-10-20T12:17:04;101958.88;;;21.22;31.40
14293;BME280;62290;59.420;17.842;2022-10-20T12:19:38;101958.88;;;21.22;31.80
14293;BME280;62290;59.420;17.842;2022-10-20T12:22:37;101961.31;;;21.27;31.64
14293;BME280;62290;59.420;17.842;2022-10-20T12:25:33;101958.72;;;21.25;31.58
14293;BME280;62290;59.420;17.842;2022-10-20T12:28:38;101960.47;;;21.26;31.55
14293;BME280;62290;59.420;17.842;2022-10-20T12:31:08;101949.03;;;21.23;31.45
14293;BME280;62290;59.420;17.842;2022-10-20T12:33:40;101951.63;;;21.24;31.24
14293;BME280;62290;59.420;17.842;2022-10-20T12:36:31;101941.59;;;21.28;31.46
14293;BME280;62290;59.420;17.842;2022-10-20T12:39:15;101938.06;;;21.27;31.01
14293;BME280;62290;59.420;17.842;2022-10-20T12:41:54;101934.41;;;21.28;31.07
14293;BME280;62290;59.420;17.842;2022-10-20T12:44:23;101934.34;;;21.30;31.46
14293;BME280;62290;59.420;17.842;2022-10-20T12:46:54;101910.03;;;21.17;31.09
14293;BME280;62290;59.420;17.842;2022-10-20T12:49:29;101921.69;;;21.32;31.21
14293;BME280;62290;59.420;17.842;2022-10-20T12:52:00;101927.06;;;21.32;31.23
14293;BME280;62290;59.420;17.842;2022-10-20T12:54:33;101891.19;;;21.19;31.06
14293;BME280;62290;59.420;17.842;2022-10-20T12:57:05;101919.88;;;21.32;31.10
14293;BME280;62290;59.420;17.842;2022-10-20T12:59:51;101919.88;;;21.32;31.09
14293;BME280;62290;59.420;17.842;2022-10-20T13:02:44;101912.59;;;21.34;30.67
14293;BME280;62290;59.420;17.842;2022-10-20T13:05:43;101905.50;;;21.33;30.92
14293;BME280;62290;59.420;17.842;2022-10-20T13:08:30;101916.16;;;21.35;30.63
14293;BME280;62290;59.420;17.842;2022-10-20T13:14:13;101904.47;;;21.36;30.70
14293;BME280;62290;59.420;17.842;2022-10-20T13:16:48;101903.41;;;21.38;30.59
14293;BME280;62290;59.420;17.842;2022-10-20T13:19:20;101898.91;;;21.39;30.73
14293;BME280;62290;59.420;17.842;2022-10-20T13:21:51;101883.88;;;21.36;30.83